Time;durP1;ratioP1;P1;durP2;ratioP2;P2;SDS_P1;SDS_P2;PMS_P1;PMS_P2;Temp;Humidity;BMP_temperature;BMP_pressure;BME280_temperature;BME280_humidity;BME280_pressure;Samples;Min_cycle;Max_cycle;Signal;HPM_P1;HPM_P2
2022/03/06 00:01:33;;;;;;;5.53;4.43;;;-0.40;99.90;;;;;;6238560;28;20274;-74
2022/03/06 00:04:41;;;;;;;5.13;3.87;;;-0.30;99.90;;;;;;6238297;28;20293;-74
2022/03/06 00:07:46;;;;;;;4.73;4.23;;;-0.30;99.90;;;;;;6237312;28;20309;-74
2022/03/06 00:10:51;;;;;;;5.57;4.20;;;-0.40;99.90;;;;;;6250189;28;20270;-74
2022/03/06 00:13:57;;;;;;;8.87;4.73;;;-0.40;99.90;;;;;;6262520;28;20306;-74
2022/03/06 00:17:03;;;;;;;4.40;3.87;;;-0.30;99.90;;;;;;6262973;28;20269;-74
2022/03/06 00:20:11;;;;;;;4.83;4.10;;;-0.40;99.90;;;;;;6261715;28;20282;-74
2022/03/06 00:23:17;;;;;;;4.90;4.40;;;-0.30;99.90;;;;;;6262151;28;20476;-74
2022/03/06 00:26:23;;;;;;;6.87;3.70;;;-0.30;99.90;;;;;;6262522;28;20272;-74
2022/03/06 00:29:28;;;;;;;4.50;4.17;;;-0.40;99.90;;;;;;6262056;28;20306;-74
2022/03/06 00:32:34;;;;;;;4.50;4.07;;;-0.40;99.90;;;;;;6262191;28;20298;-74
2022/03/06 00:35:41;;;;;;;4.60;4.20;;;-0.40;99.90;;;;;;6262129;28;20273;-74
2022/03/06 00:38:46;;;;;;;4.23;3.93;;;-0.40;99.90;;;;;;6261788;28;20586;-74
2022/03/06 00:41:51;;;;;;;4.90;4.10;;;-0.40;99.90;;;;;;6262339;28;20274;-74
2022/03/06 00:44:57;;;;;;;5.00;4.60;;;-0.40;99.90;;;;;;6261876;28;20453;-74
2022/03/06 00:48:03;;;;;;;4.47;4.17;;;-0.40;99.90;;;;;;6262113;28;20301;-74
2022/03/06 00:51:12;;;;;;;5.00;3.80;;;-0.40;99.90;;;;;;6261703;28;20268;-74
2022/03/06 00:54:19;;;;;;;6.93;4.33;;;-0.40;99.90;;;;;;6264162;28;20301;-74
2022/03/06 00:57:25;;;;;;;4.20;3.80;;;-0.40;99.90;;;;;;6266103;28;20278;-74
2022/03/06 01:00:31;;;;;;;4.57;4.10;;;-0.40;99.90;;;;;;6267104;28;20565;-74
2022/03/06 01:03:37;;;;;;;6.47;3.93;;;-0.40;99.90;;;;;;6266046;28;20587;-74
2022/03/06 01:06:46;;;;;;;7.90;4.03;;;-0.40;99.90;;;;;;6266534;28;20278;-74
2022/03/06 01:09:52;;;;;;;7.47;3.97;;;-0.50;99.90;;;;;;6266181;28;20302;-74
2022/03/06 01:12:58;;;;;;;5.87;3.87;;;-0.50;99.90;;;;;;6266124;28;20489;-74
2022/03/06 01:16:04;;;;;;;4.33;3.93;;;-0.50;99.90;;;;;;6266293;28;20289;-73
2022/03/06 01:19:10;;;;;;;4.17;3.87;;;-0.50;99.90;;;;;;6266681;28;20301;-73
2022/03/06 01:22:17;;;;;;;4.50;3.77;;;-0.50;99.90;;;;;;6265472;28;20275;-73
2022/03/06 01:25:23;;;;;;;5.47;3.80;;;-0.60;99.90;;;;;;6266710;28;20559;-73
2022/03/06 01:28:28;;;;;;;4.47;4.07;;;-0.60;99.90;;;;;;6265929;28;20308;-73
2022/03/06 01:31:34;;;;;;;3.73;3.43;;;-0.60;99.90;;;;;;6265947;28;20296;-73
2022/03/06 01:34:39;;;;;;;5.67;4.30;;;-0.60;99.90;;;;;;6266309;28;20297;-73
2022/03/06 01:37:47;;;;;;;4.70;3.70;;;-0.70;99.90;;;;;;6266140;28;20297;-73
2022/03/06 01:40:52;;;;;;;9.00;4.10;;;-0.70;99.90;;;;;;6265692;28;20274;-73
2022/03/06 01:43:57;;;;;;;3.87;3.67;;;-0.60;99.90;;;;;;6265671;28;20301;-73
2022/03/06 01:47:03;;;;;;;3.90;3.70;;;-0.60;99.90;;;;;;6266045;28;20274;-74
2022/03/06 01:50:14;;;;;;;4.53;4.13;;;-0.60;99.90;;;;;;6264536;28;20281;-73
2022/03/06 01:53:21;;;;;;;4.80;3.70;;;-0.60;99.90;;;;;;6266589;28;20606;-73
2022/03/06 01:56:26;;;;;;;5.20;3.90;;;-0.50;99.90;;;;;;6266874;28;20585;-73
2022/03/06 01:59:31;;;;;;;5.53;3.97;;;-0.50;99.90;;;;;;6266295;28;20300;-73
2022/03/06 02:02:38;;;;;;;6.83;3.80;;;-0.50;99.90;;;;;;6265331;28;20489;-73
2022/03/06 02:05:43;;;;;;;3.40;3.30;;;-0.50;99.90;;;;;;6265154;28;20275;-73
2022/03/06 02:08:50;;;;;;;4.17;3.87;;;-0.40;99.90;;;;;;6265514;28;20605;-73
2022/03/06 02:15:17;;;;;;;4.00;3.30;;;-0.30;99.90;;;;;;6263881;28;20292;-73
2022/03/06 02:18:22;;;;;;;3.93;3.43;;;-0.30;99.90;;;;;;6264147;28;20331;-73
2022/03/06 02:21:29;;;;;;;7.37;3.70;;;-0.30;99.90;;;;;;6264164;28;20273;-73
2022/03/06 02:24:34;;;;;;;3.77;3.37;;;-0.30;99.90;;;;;;6284686;28;20323;-73
2022/03/06 02:27:40;;;;;;;3.50;3.30;;;-0.20;99.90;;;;;;6288622;28;20292;-73
2022/03/06 02:30:45;;;;;;;3.57;3.27;;;-0.20;99.90;;;;;;6288703;28;20273;-73
2022/03/06 02:33:50;;;;;;;7.33;3.80;;;-0.20;99.90;;;;;;6288786;28;20294;-73
2022/03/06 02:37:00;;;;;;;4.87;3.33;;;-0.10;99.90;;;;;;6288783;28;20276;-73
2022/03/06 02:40:10;;;;;;;3.50;3.30;;;-0.10;99.90;;;;;;6289321;28;20373;-73
2022/03/06 02:43:17;;;;;;;3.43;3.10;;;-0.10;99.90;;;;;;6288777;28;20300;-73
2022/03/06 02:46:23;;;;;;;3.63;3.40;;;-0.10;99.90;;;;;;6289137;28;20272;-73
2022/03/06 02:49:28;;;;;;;3.50;3.13;;;-0.10;99.90;;;;;;6288846;28;20575;-73
2022/03/06 02:52:35;;;;;;;3.17;2.90;;;-0.10;99.90;;;;;;6288783;28;20296;-73
2022/03/06 02:55:42;;;;;;;4.57;3.13;;;-0.10;99.90;;;;;;6289372;28;20544;-73
2022/03/06 02:58:47;;;;;;;4.10;2.90;;;-0.10;99.90;;;;;;6288080;28;20299;-73
2022/03/06 03:01:54;;;;;;;3.40;3.07;;;0.00;99.90;;;;;;6304238;28;20297;-73
2022/03/06 03:05:00;;;;;;;3.47;3.13;;;0.00;99.90;;;;;;6288832;28;20297;-73
2022/03/06 03:08:08;;;;;;;3.10;2.83;;;0.00;99.90;;;;;;6288181;28;20614;-73
2022/03/06 03:11:14;;;;;;;2.60;2.50;;;0.00;99.90;;;;;;6288228;28;20277;-73
2022/03/06 03:14:20;;;;;;;6.63;3.20;;;-0.10;99.90;;;;;;6287795;28;20296;-73
2022/03/06 03:17:25;;;;;;;2.93;2.83;;;-0.10;99.90;;;;;;6287153;28;20269;-73
2022/03/06 03:20:30;;;;;;;3.10;2.90;;;-0.10;99.90;;;;;;6287426;28;20291;-73
2022/03/06 03:23:37;;;;;;;3.13;2.97;;;-0.10;99.90;;;;;;6288214;28;20297;-73
2022/03/06 03:26:42;;;;;;;3.20;2.90;;;-0.10;99.90;;;;;;6287599;28;20273;-73
2022/03/06 03:29:48;;;;;;;3.20;3.00;;;-0.10;99.90;;;;;;6287468;28;20439;-73
2022/03/06 03:32:53;;;;;;;4.83;2.57;;;-0.10;99.90;;;;;;6286862;28;20296;-73
2022/03/06 03:35:59;;;;;;;3.37;3.07;;;-0.10;99.90;;;;;;6287965;28;20272;-73
2022/03/06 03:39:05;;;;;;;3.27;3.07;;;-0.10;99.90;;;;;;6287759;28;20298;-73
2022/03/06 03:42:11;;;;;;;3.27;2.90;;;-0.10;99.90;;;;;;6287465;28;20292;-73
2022/03/06 03:45:17;;;;;;;2.70;2.60;;;-0.10;99.90;;;;;;6287751;28;20276;-73
2022/03/06 03:48:22;;;;;;;4.47;2.50;;;-0.10;99.90;;;;;;6287132;28;20605;-73
2022/03/06 03:51:27;;;;;;;2.73;2.63;;;-0.20;99.90;;;;;;6287582;28;20528;-73
2022/03/06 03:54:35;;;;;;;2.93;2.53;;;-0.10;99.90;;;;;;6287381;28;20295;-73
2022/03/06 03:57:41;;;;;;;3.00;2.63;;;-0.20;99.90;;;;;;6286497;28;20299;-73
2022/03/06 04:00:50;;;;;;;2.60;2.40;;;-0.20;99.90;;;;;;6292777;28;20295;-73
2022/03/06 04:03:55;;;;;;;2.73;2.50;;;-0.20;99.90;;;;;;6283704;28;20297;-73
2022/03/06 04:07:01;;;;;;;2.60;2.40;;;-0.20;99.90;;;;;;6286893;28;20283;-73
2022/03/06 04:10:09;;;;;;;2.50;2.40;;;-0.30;99.90;;;;;;6286517;28;20281;-73
2022/03/06 04:13:14;;;;;;;3.30;2.90;;;-0.30;99.90;;;;;;6286731;28;20296;-73
2022/03/06 04:16:19;;;;;;;2.40;2.40;;;-0.30;99.90;;;;;;6286521;28;20273;-73
2022/03/06 04:19:25;;;;;;;2.60;2.50;;;-0.40;99.90;;;;;;6286618;28;20296;-73
2022/03/06 04:22:31;;;;;;;3.33;2.47;;;-0.40;99.90;;;;;;6286445;28;20302;-73
2022/03/06 04:25:37;;;;;;;4.17;2.87;;;-0.40;99.90;;;;;;6287413;28;20322;-73
2022/03/06 04:28:42;;;;;;;2.27;2.27;;;-0.50;99.90;;;;;;6286462;28;20291;-73
2022/03/06 04:31:48;;;;;;;3.50;2.20;;;-0.50;99.90;;;;;;6287410;28;20300;-73
2022/03/06 04:34:54;;;;;;;2.50;2.40;;;-0.50;99.90;;;;;;6286636;28;20435;-73
2022/03/06 04:37:59;;;;;;;4.70;2.77;;;-0.50;99.90;;;;;;6286252;28;20297;-73
2022/03/06 04:41:06;;;;;;;4.20;2.60;;;-0.60;99.90;;;;;;6286613;28;20292;-73
2022/03/06 04:44:14;;;;;;;3.10;2.50;;;-0.60;99.90;;;;;;6286140;28;20307;-73
2022/03/06 04:47:19;;;;;;;2.30;2.20;;;-0.60;99.90;;;;;;6286219;28;20298;-74
2022/03/06 04:50:25;;;;;;;2.40;2.30;;;-0.70;99.90;;;;;;6287318;28;20266;-74
2022/03/06 04:53:30;;;;;;;2.90;2.70;;;-0.70;99.90;;;;;;6286630;28;20306;-74
2022/03/06 04:56:37;;;;;;;2.23;2.07;;;-0.70;99.90;;;;;;6287280;28;20291;-73
2022/03/06 04:59:42;;;;;;;2.63;2.43;;;-0.70;99.90;;;;;;6285954;28;20484;-74
2022/03/06 05:02:48;;;;;;;2.30;2.23;;;-0.70;99.90;;;;;;6286450;28;20291;-74
2022/03/06 05:05:53;;;;;;;6.67;2.30;;;-0.80;99.90;;;;;;6286792;28;20277;-74
2022/03/06 05:08:59;;;;;;;2.33;2.23;;;-0.80;99.90;;;;;;6286456;28;20580;-73
2022/03/06 05:12:08;;;;;;;2.30;2.20;;;-0.80;99.90;;;;;;6285614;28;20296;-74
2022/03/06 05:15:16;;;;;;;2.27;2.17;;;-0.80;99.90;;;;;;6286084;28;20267;-73
2022/03/06 05:18:22;;;;;;;2.30;2.10;;;-0.80;99.90;;;;;;6285578;28;20295;-73
2022/03/06 05:21:27;;;;;;;2.40;2.30;;;-0.90;99.90;;;;;;6286447;28;20344;-73
2022/03/06 05:24:32;;;;;;;2.53;2.33;;;-0.90;99.90;;;;;;6285878;28;20503;-73
2022/03/06 05:27:40;;;;;;;2.33;2.33;;;-0.90;99.90;;;;;;6286436;28;20294;-73
2022/03/06 05:30:45;;;;;;;1.87;1.80;;;-0.90;99.90;;;;;;6286151;28;20579;-74
2022/03/06 05:33:51;;;;;;;2.07;1.97;;;-0.90;99.90;;;;;;6286010;28;20587;-73
2022/03/06 05:36:58;;;;;;;2.53;1.90;;;-0.90;99.90;;;;;;6285575;28;20295;-74
2022/03/06 05:40:05;;;;;;;2.33;2.23;;;-0.90;99.90;;;;;;6288615;28;20273;-74
2022/03/06 05:43:13;;;;;;;1.97;1.80;;;-0.90;99.90;;;;;;6328190;28;20479;-73
2022/03/06 05:46:19;;;;;;;1.97;1.87;;;-0.90;99.90;;;;;;6340721;28;20285;-73
2022/03/06 05:49:24;;;;;;;2.00;1.90;;;-1.00;99.90;;;;;;6340757;28;20294;-73
2022/03/06 05:52:29;;;;;;;2.13;2.13;;;-0.90;99.90;;;;;;6339968;28;20300;-74
2022/03/06 05:55:35;;;;;;;1.83;1.70;;;-0.90;99.90;;;;;;6340371;28;20273;-73
2022/03/06 05:58:42;;;;;;;1.90;1.83;;;-0.90;99.90;;;;;;6339866;28;20299;-73
2022/03/06 06:01:48;;;;;;;2.10;2.00;;;-1.00;99.90;;;;;;6339988;28;20476;-74
2022/03/06 06:04:53;;;;;;;1.80;1.70;;;-1.00;99.90;;;;;;6339284;28;20480;-73
2022/03/06 06:07:58;;;;;;;2.40;2.10;;;-1.00;99.90;;;;;;6339254;28;20296;-73
2022/03/06 06:11:04;;;;;;;2.93;1.90;;;-1.00;99.90;;;;;;6325072;28;20266;-73
2022/03/06 06:14:12;;;;;;;1.97;1.83;;;-1.00;99.90;;;;;;6313979;28;20593;-73
2022/03/06 06:17:23;;;;;;;1.90;1.90;;;-0.90;99.90;;;;;;6313616;28;20293;-73
2022/03/06 06:20:29;;;;;;;1.90;1.90;;;-0.90;99.90;;;;;;6314655;28;20274;-74
2022/03/06 06:23:36;;;;;;;2.47;1.70;;;-1.00;99.90;;;;;;6340905;28;20305;-73
2022/03/06 06:26:41;;;;;;;2.30;2.20;;;-0.90;99.90;;;;;;6365112;28;20420;-74
2022/03/06 06:29:47;;;;;;;1.70;1.60;;;-0.90;99.90;;;;;;6363850;28;20293;-74
2022/03/06 06:32:53;;;;;;;1.90;1.80;;;-0.90;99.90;;;;;;6364545;28;20305;-74
2022/03/06 06:35:58;;;;;;;2.63;1.80;;;-0.90;99.90;;;;;;6364049;28;20296;-74
2022/03/06 06:39:03;;;;;;;1.73;1.73;;;-0.90;99.90;;;;;;6364520;28;20297;-74
2022/03/06 06:42:10;;;;;;;2.40;1.70;;;-0.80;99.90;;;;;;6364997;28;22135;-74
2022/03/06 06:45:17;;;;;;;2.20;1.60;;;-0.80;99.90;;;;;;6365200;28;20269;-74
2022/03/06 06:48:22;;;;;;;2.20;1.97;;;-0.80;99.90;;;;;;6364475;28;20295;-73
2022/03/06 06:51:28;;;;;;;1.53;1.53;;;-0.70;99.90;;;;;;6363610;28;20270;-73
2022/03/06 06:54:33;;;;;;;1.77;1.77;;;-0.70;99.90;;;;;;6364120;28;20294;-73
2022/03/06 06:57:38;;;;;;;1.43;1.43;;;-0.60;99.90;;;;;;6363704;28;20293;-73
2022/03/06 07:00:45;;;;;;;1.60;1.50;;;-0.60;99.90;;;;;;6363333;28;20269;-73
2022/03/06 07:03:50;;;;;;;2.00;1.60;;;-0.60;99.90;;;;;;6362716;28;20293;-73
2022/03/06 07:06:56;;;;;;;1.40;1.40;;;-0.50;99.90;;;;;;6362794;28;20273;-74
2022/03/06 07:10:01;;;;;;;1.40;1.30;;;-0.50;99.90;;;;;;6363888;28;20261;-73
2022/03/06 07:13:07;;;;;;;1.80;1.70;;;-0.40;99.90;;;;;;6363301;28;20305;-73
2022/03/06 07:16:15;;;;;;;2.63;1.70;;;-0.40;99.90;;;;;;6364203;28;20272;-73
2022/03/06 07:19:20;;;;;;;1.30;1.30;;;-0.40;99.90;;;;;;6362760;28;20297;-73
2022/03/06 07:22:25;;;;;;;1.47;1.47;;;-0.30;99.90;;;;;;6362863;28;20289;-74
2022/03/06 07:25:31;;;;;;;2.00;1.30;;;-0.30;99.90;;;;;;6363900;28;20268;-73
2022/03/06 07:28:36;;;;;;;1.57;1.47;;;-0.20;99.90;;;;;;6363215;28;20465;-73
2022/03/06 07:31:43;;;;;;;1.47;1.37;;;-0.20;99.90;;;;;;6362754;28;20302;-73
2022/03/06 07:34:48;;;;;;;1.30;1.30;;;-0.10;99.90;;;;;;6362408;28;20300;-73
2022/03/06 07:37:54;;;;;;;1.50;1.50;;;0.00;99.90;;;;;;6363013;28;20572;-73
2022/03/06 07:40:59;;;;;;;4.93;1.50;;;0.00;99.90;;;;;;6363267;28;20270;-74
2022/03/06 07:44:05;;;;;;;1.37;1.27;;;0.00;99.90;;;;;;6362013;28;20301;-74
2022/03/06 07:47:15;;;;;;;1.20;1.20;;;0.10;99.90;;;;;;6362245;28;20549;-74
2022/03/06 07:50:20;;;;;;;1.43;1.40;;;0.10;99.90;;;;;;6362625;28;20274;-74
2022/03/06 07:53:25;;;;;;;1.30;1.30;;;0.10;99.90;;;;;;6362378;28;20484;-74
2022/03/06 07:56:30;;;;;;;1.83;1.73;;;0.20;99.90;;;;;;6362961;28;20278;-73
2022/03/06 07:59:36;;;;;;;1.23;1.20;;;0.20;99.90;;;;;;6362426;28;20464;-73
2022/03/06 08:02:43;;;;;;;1.77;1.50;;;0.20;99.90;;;;;;6361069;28;20288;-73
2022/03/06 08:05:48;;;;;;;1.20;1.10;;;0.30;99.90;;;;;;6362441;28;20408;-73
2022/03/06 08:08:54;;;;;;;4.00;1.40;;;0.40;99.90;;;;;;6362099;28;20299;-74
2022/03/06 08:12:00;;;;;;;1.80;1.40;;;0.40;99.90;;;;;;6361192;28;20263;-74
2022/03/06 08:15:07;;;;;;;1.17;1.17;;;0.50;99.90;;;;;;6362745;28;20270;-73
2022/03/06 08:18:18;;;;;;;1.17;1.17;;;0.50;99.90;;;;;;6361473;28;20295;-73
2022/03/06 08:21:24;;;;;;;2.90;1.17;;;0.50;99.90;;;;;;6361554;28;20424;-73
2022/03/06 08:24:30;;;;;;;1.30;1.20;;;0.60;99.90;;;;;;6361456;28;20303;-73
2022/03/06 08:27:36;;;;;;;1.30;1.30;;;0.60;99.90;;;;;;6361473;28;20328;-74
2022/03/06 08:30:41;;;;;;;1.30;1.20;;;0.60;99.90;;;;;;6361984;28;20274;-74
2022/03/06 08:33:48;;;;;;;1.20;1.20;;;0.70;99.90;;;;;;6311038;28;20574;-73
2022/03/06 08:36:53;;;;;;;1.60;1.17;;;0.80;99.90;;;;;;6311308;28;20272;-74
2022/03/06 08:39:59;;;;;;;1.87;1.10;;;0.80;99.90;;;;;;6311001;28;20276;-73
2022/03/06 08:43:04;;;;;;;1.40;1.40;;;0.80;99.90;;;;;;6310634;28;20297;-74
2022/03/06 08:46:10;;;;;;;1.10;1.10;;;0.90;99.90;;;;;;6310969;28;20572;-73
2022/03/06 08:49:17;;;;;;;2.30;1.27;;;0.90;99.90;;;;;;6310962;28;20301;-73
2022/03/06 08:52:23;;;;;;;1.00;1.00;;;0.90;99.90;;;;;;6310428;28;20579;-74
2022/03/06 08:55:29;;;;;;;1.27;1.10;;;0.90;99.90;;;;;;6310717;28;20275;-74
2022/03/06 08:58:35;;;;;;;0.90;0.90;;;1.00;99.90;;;;;;6311142;28;20604;-74
2022/03/06 09:01:40;;;;;;;1.17;1.03;;;1.00;99.90;;;;;;6310568;28;20648;-73
2022/03/06 09:04:47;;;;;;;3.77;1.17;;;1.10;99.90;;;;;;6310528;28;20301;-73
2022/03/06 09:07:52;;;;;;;1.10;1.10;;;1.10;99.90;;;;;;6309962;28;20292;-74
2022/03/06 09:10:58;;;;;;;1.13;1.13;;;1.30;99.90;;;;;;6310666;28;20270;-73
2022/03/06 09:14:03;;;;;;;6.57;1.33;;;1.20;99.90;;;;;;6311211;28;20293;-74
2022/03/06 09:17:09;;;;;;;0.90;0.90;;;1.20;99.90;;;;;;6315721;28;20439;-74
2022/03/06 09:20:15;;;;;;;2.10;1.17;;;1.30;99.90;;;;;;6315226;28;20290;-74
2022/03/06 09:23:21;;;;;;;1.53;1.13;;;1.30;99.90;;;;;;6315255;28;20297;-74
2022/03/06 09:26:26;;;;;;;1.53;1.13;;;1.40;99.90;;;;;;6314871;28;20293;-74
2022/03/06 09:29:32;;;;;;;1.20;0.90;;;1.30;99.90;;;;;;6314344;28;20300;-74
2022/03/06 09:32:38;;;;;;;4.40;1.03;;;1.50;99.90;;;;;;6345224;28;20299;-74
2022/03/06 09:35:44;;;;;;;3.20;0.97;;;1.50;99.90;;;;;;6365803;28;20276;-73
2022/03/06 09:38:50;;;;;;;2.30;1.20;;;1.50;99.90;;;;;;6364689;28;20296;-74
2022/03/06 09:41:57;;;;;;;2.00;1.20;;;1.60;99.90;;;;;;6365976;28;20289;-74
2022/03/06 09:45:08;;;;;;;1.10;1.10;;;1.60;99.90;;;;;;6364120;28;20292;-74
2022/03/06 09:48:18;;;;;;;1.07;1.07;;;1.60;99.90;;;;;;6365223;28;20297;-73
2022/03/06 09:51:25;;;;;;;2.63;1.10;;;1.80;99.90;;;;;;6365104;28;20437;-74
2022/03/06 09:54:31;;;;;;;3.60;1.20;;;1.90;99.90;;;;;;6364478;28;20295;-73
2022/03/06 09:57:36;;;;;;;2.63;1.10;;;1.90;99.90;;;;;;6364216;28;20296;-73
2022/03/06 10:00:41;;;;;;;2.60;1.10;;;2.00;99.90;;;;;;6365003;28;20269;-73
2022/03/06 10:03:48;;;;;;;1.53;1.40;;;2.00;99.90;;;;;;6364895;28;20299;-73
2022/03/06 10:07:05;;;;;;;1.47;1.00;;;2.00;99.90;;;;;;6365188;28;20304;-73
2022/03/06 10:10:13;;;;;;;1.33;1.10;;;2.00;99.90;;;;;;6364337;28;20275;-74
2022/03/06 10:13:24;;;;;;;1.10;1.10;;;2.10;99.90;;;;;;6364777;28;20290;-74
2022/03/06 10:16:30;;;;;;;1.20;1.20;;;2.20;99.90;;;;;;6364159;28;20273;-73
2022/03/06 10:19:55;;;;;;;4.57;1.27;;;2.20;99.90;;;;;;6364883;28;20296;-74
2022/03/06 10:23:02;;;;;;;3.70;1.00;;;2.20;99.90;;;;;;6363295;28;20293;-74
2022/03/06 10:26:12;;;;;;;1.20;1.10;;;2.40;99.90;;;;;;6363940;28;20470;-74
2022/03/06 10:29:19;;;;;;;1.77;1.10;;;2.40;99.90;;;;;;6364268;28;20299;-74
2022/03/06 10:32:25;;;;;;;2.10;1.10;;;2.50;99.90;;;;;;6364015;28;20294;-74
2022/03/06 10:35:39;;;;;;;7.17;1.00;;;2.50;99.90;;;;;;6363809;28;20276;-75
2022/03/06 10:38:55;;;;;;;5.97;2.10;;;2.60;99.90;;;;;;6363485;28;20308;-73
2022/03/06 10:42:00;;;;;;;1.10;1.10;;;2.60;99.90;;;;;;6363189;28;20267;-74
2022/03/06 10:45:07;;;;;;;1.10;1.10;;;2.70;99.90;;;;;;6363609;28;20586;-74
2022/03/06 10:48:15;;;;;;;5.57;1.27;;;2.80;99.90;;;;;;6364046;28;20292;-73
2022/03/06 10:51:21;;;;;;;1.63;1.00;;;2.80;99.90;;;;;;6364354;28;20265;-73
2022/03/06 10:54:28;;;;;;;3.70;1.30;;;3.00;99.90;;;;;;6362783;28;20299;-74
2022/03/06 10:57:33;;;;;;;0.90;0.90;;;3.10;99.90;;;;;;6363005;28;20288;-73
2022/03/06 11:00:39;;;;;;;4.00;1.40;;;3.00;99.90;;;;;;6363494;28;20280;-74
2022/03/06 11:03:44;;;;;;;2.60;1.10;;;3.10;99.90;;;;;;6363172;28;20289;-73
2022/03/06 11:06:52;;;;;;;1.37;1.13;;;3.30;99.50;;;;;;6363502;28;20596;-72
2022/03/06 11:09:59;;;;;;;1.20;1.10;;;3.20;99.30;;;;;;6364024;28;20276;-75
2022/03/06 11:13:06;;;;;;;1.00;1.00;;;3.30;98.90;;;;;;6363017;28;20314;-74
2022/03/06 11:16:14;;;;;;;1.20;1.10;;;3.40;98.60;;;;;;6364733;28;20270;-75
2022/03/06 11:19:20;;;;;;;2.43;1.43;;;3.40;98.40;;;;;;6364994;28;20298;-75
2022/03/06 11:22:30;;;;;;;5.07;1.00;;;3.50;98.10;;;;;;6362567;28;20292;-74
2022/03/06 11:25:46;;;;;;;2.73;1.10;;;3.60;97.50;;;;;;6362785;28;20290;-75
2022/03/06 11:29:14;;;;;;;5.70;1.00;;;3.60;97.60;;;;;;6362621;28;20294;-75
2022/03/06 11:32:28;;;;;;;1.53;0.90;;;3.60;97.90;;;;;;6362234;28;20293;-75
2022/03/06 11:35:36;;;;;;;3.37;1.00;;;3.60;97.60;;;;;;6363160;28;20272;-74
2022/03/06 11:38:45;;;;;;;0.90;0.90;;;3.60;97.90;;;;;;6361205;28;20391;-74
2022/03/06 11:41:52;;;;;;;1.00;1.00;;;3.70;97.00;;;;;;6361531;28;20304;-74
2022/03/06 11:44:57;;;;;;;2.87;1.10;;;3.70;97.10;;;;;;6362552;28;20589;-74
2022/03/06 11:48:03;;;;;;;1.20;1.20;;;3.70;97.00;;;;;;6361166;28;20302;-74
2022/03/06 11:51:26;;;;;;;2.27;1.03;;;3.80;96.80;;;;;;6362399;28;20271;-75
2022/03/06 11:54:44;;;;;;;1.40;1.00;;;3.90;96.10;;;;;;6362459;28;20300;-73
2022/03/06 11:57:51;;;;;;;1.40;1.00;;;3.90;95.80;;;;;;6361618;28;20604;-74
2022/03/06 12:00:57;;;;;;;6.57;1.00;;;3.90;95.50;;;;;;6362770;28;20569;-75
2022/03/06 12:04:03;;;;;;;1.43;0.90;;;4.00;95.10;;;;;;6360977;28;20587;-74
2022/03/06 12:10:48;;;;;;;3.73;1.00;;;4.00;95.20;;;;;;6272345;28;20276;-75
2022/03/06 12:14:12;;;;;;;0.83;0.83;;;4.10;93.60;;;;;;6278083;28;20473;-73
2022/03/06 12:17:40;;;;;;;1.90;0.90;;;4.10;93.70;;;;;;6262327;28;20314;-73
2022/03/06 12:20:45;;;;;;;0.87;0.87;;;4.20;92.80;;;;;;6287589;28;20570;-73
2022/03/06 12:24:10;;;;;;;1.43;0.90;;;4.20;93.40;;;;;;6286347;28;20302;-76
2022/03/06 12:27:17;;;;;;;6.97;1.20;;;4.40;91.70;;;;;;6272811;28;20287;-75
2022/03/06 12:30:25;;;;;;;4.33;1.10;;;4.40;92.70;;;;;;6261374;28;20275;-75
2022/03/06 12:33:41;;;;;;;2.30;0.80;;;4.40;92.30;;;;;;6261122;28;20504;-75
2022/03/06 12:36:55;;;;;;;9.87;1.50;;;4.40;92.00;;;;;;6261493;28;20288;-76
2022/03/06 12:40:05;;;;;;;1.60;1.00;;;4.40;91.90;;;;;;6259763;28;20574;-75
2022/03/06 12:43:11;;;;;;;1.23;0.77;;;4.40;91.90;;;;;;6265426;28;20302;-74
2022/03/06 12:46:19;;;;;;;13.87;2.13;;;4.50;91.80;;;;;;6286030;28;20267;-75
2022/03/06 12:49:24;;;;;;;2.90;0.70;;;4.50;91.80;;;;;;6289573;28;20301;-75
2022/03/06 12:52:30;;;;;;;6.43;0.90;;;4.50;91.40;;;;;;6291131;28;20302;-74
2022/03/06 12:55:38;;;;;;;0.87;0.80;;;4.60;90.70;;;;;;6291546;28;20275;-74
2022/03/06 12:58:44;;;;;;;0.80;0.80;;;4.60;91.10;;;;;;6291563;28;20300;-75
2022/03/06 13:01:51;;;;;;;10.03;1.20;;;4.60;90.30;;;;;;6290991;28;20272;-76
2022/03/06 13:04:56;;;;;;;1.60;0.80;;;4.60;90.20;;;;;;6289926;28;20298;-75
2022/03/06 13:08:02;;;;;;;2.43;1.07;;;4.60;90.30;;;;;;6293010;28;20304;-75
2022/03/06 13:11:07;;;;;;;0.90;0.90;;;4.60;90.80;;;;;;6315332;28;20273;-78
2022/03/06 13:14:13;;;;;;;3.10;1.00;;;4.70;90.30;;;;;;6315391;28;20287;-75
2022/03/06 13:17:21;;;;;;;0.90;0.90;;;4.70;90.60;;;;;;6312540;28;20294;-77
2022/03/06 13:20:30;;;;;;;1.10;1.00;;;4.70;90.60;;;;;;6292205;28;20556;-77
2022/03/06 13:23:36;;;;;;;0.90;0.90;;;4.70;90.50;;;;;;6291746;28;20303;-77
2022/03/06 13:26:41;;;;;;;4.30;1.27;;;4.70;90.20;;;;;;6274086;28;20547;-76
2022/03/06 13:30:04;;;;;;;0.90;0.90;;;4.80;89.00;;;;;;6290317;28;20302;-74
2022/03/06 13:33:21;;;;;;;2.73;0.73;;;4.80;90.00;;;;;;6289822;28;20296;-74
2022/03/06 13:36:27;;;;;;;1.97;0.90;;;4.90;87.30;;;;;;6289864;28;20273;-73
2022/03/06 13:39:33;;;;;;;4.53;0.80;;;4.90;89.90;;;;;;6290234;28;20300;-74
2022/03/06 13:42:41;;;;;;;0.80;0.80;;;4.80;90.30;;;;;;6289318;28;20294;-73
2022/03/06 13:45:54;;;;;;;3.93;1.10;;;4.90;90.30;;;;;;6290313;28;20268;-74
2022/03/06 13:49:12;;;;;;;7.00;1.00;;;5.00;89.00;;;;;;6288229;28;20306;-74
2022/03/06 13:52:17;;;;;;;1.10;1.00;;;5.00;89.20;;;;;;6288550;28;20306;-74
2022/03/06 13:55:26;;;;;;;0.77;0.77;;;5.10;85.70;;;;;;6289808;28;20291;-73
2022/03/06 13:58:39;;;;;;;1.17;1.00;;;5.20;86.30;;;;;;6289282;28;20306;-72
2022/03/06 14:01:45;;;;;;;2.53;1.13;;;5.30;84.90;;;;;;6271826;28;20277;-74
2022/03/06 14:04:53;;;;;;;2.87;0.90;;;5.60;80.80;;;;;;6288783;28;20296;-75
2022/03/06 14:08:12;;;;;;;0.70;0.70;;;5.50;76.40;;;;;;6285733;28;20585;-74
2022/03/06 14:11:26;;;;;;;1.37;0.80;;;5.30;80.60;;;;;;6264625;28;20275;-74
2022/03/06 14:14:35;;;;;;;2.60;1.00;;;5.30;75.40;;;;;;6264248;28;20553;-75
2022/03/06 14:17:41;;;;;;;0.93;0.70;;;5.50;72.80;;;;;;6271318;28;20292;-74
2022/03/06 14:20:48;;;;;;;1.43;0.70;;;5.50;71.90;;;;;;6313754;28;20274;-75
2022/03/06 14:23:55;;;;;;;1.23;0.83;;;5.50;72.70;;;;;;6314549;28;20297;-75
2022/03/06 14:27:01;;;;;;;1.80;0.70;;;5.50;73.40;;;;;;6313663;28;20269;-76
2022/03/06 14:30:07;;;;;;;2.40;1.00;;;5.50;73.50;;;;;;6314463;28;20288;-77
2022/03/06 14:33:17;;;;;;;0.77;0.60;;;5.40;74.20;;;;;;6313278;28;20305;-76
2022/03/06 14:36:24;;;;;;;0.97;0.70;;;5.40;75.20;;;;;;6314545;28;20276;-75
2022/03/06 14:39:30;;;;;;;0.73;0.70;;;5.40;74.60;;;;;;6313511;28;20301;-75
2022/03/06 14:42:35;;;;;;;2.73;0.80;;;5.40;74.60;;;;;;6312806;28;20308;-74
2022/03/06 14:45:58;;;;;;;1.17;0.70;;;5.40;76.80;;;;;;6312913;28;20274;-75
2022/03/06 14:49:05;;;;;;;2.67;0.70;;;5.40;73.90;;;;;;6312736;28;20300;-75
2022/03/06 14:52:13;;;;;;;0.60;0.60;;;5.30;74.50;;;;;;6312480;28;20266;-75
2022/03/06 14:55:18;;;;;;;2.13;0.77;;;5.20;76.60;;;;;;6313637;28;20271;-75
2022/03/06 14:58:24;;;;;;;0.77;0.77;;;5.10;79.20;;;;;;6295156;28;20622;-75
2022/03/06 15:01:30;;;;;;;0.70;0.70;;;5.20;76.80;;;;;;6313281;28;20288;-75
2022/03/06 15:04:35;;;;;;;0.77;0.77;;;5.20;76.90;;;;;;6312438;28;20598;-75
2022/03/06 15:07:42;;;;;;;0.70;0.70;;;5.20;75.60;;;;;;6312355;28;20296;-75
2022/03/06 15:10:51;;;;;;;1.03;0.80;;;5.20;76.10;;;;;;6312378;28;20290;-75
2022/03/06 15:13:57;;;;;;;1.10;0.67;;;5.10;78.00;;;;;;6312088;28;20299;-75
2022/03/06 15:17:03;;;;;;;2.27;0.90;;;5.20;77.00;;;;;;6312244;28;20271;-76
2022/03/06 15:20:12;;;;;;;1.60;0.90;;;5.10;77.50;;;;;;6312944;28;20275;-74
2022/03/06 15:23:20;;;;;;;0.90;0.90;;;5.10;77.30;;;;;;6311642;28;20301;-75
2022/03/06 15:26:26;;;;;;;2.70;0.90;;;5.20;75.60;;;;;;6312916;28;20267;-74
2022/03/06 15:29:31;;;;;;;3.07;1.03;;;5.00;79.90;;;;;;6311561;28;20594;-73
2022/03/06 15:32:36;;;;;;;0.77;0.77;;;4.90;79.60;;;;;;6311244;28;20567;-74
2022/03/06 15:35:43;;;;;;;2.27;0.80;;;5.00;76.90;;;;;;6312325;28;20267;-73
2022/03/06 15:38:49;;;;;;;2.17;0.80;;;5.00;77.60;;;;;;6311637;28;20299;-74
2022/03/06 15:41:55;;;;;;;0.80;0.80;;;5.00;77.50;;;;;;6312286;28;20271;-73
2022/03/06 15:45:00;;;;;;;1.37;1.00;;;4.90;81.10;;;;;;6311481;28;20274;-73
2022/03/06 15:48:06;;;;;;;0.93;0.93;;;4.70;84.50;;;;;;6311882;28;20304;-74
2022/03/06 15:51:14;;;;;;;6.20;0.90;;;4.70;84.10;;;;;;6311627;28;20295;-73
2022/03/06 15:54:20;;;;;;;2.13;0.80;;;4.60;86.90;;;;;;6312201;28;20299;-73
2022/03/06 15:57:27;;;;;;;0.83;0.83;;;4.50;88.50;;;;;;6311113;28;20583;-74
2022/03/06 16:00:32;;;;;;;3.40;0.73;;;4.40;88.10;;;;;;6311732;28;20279;-73
2022/03/06 16:03:38;;;;;;;1.07;0.97;;;4.40;88.90;;;;;;6311047;28;20302;-73
2022/03/06 16:06:44;;;;;;;4.07;0.97;;;4.40;89.30;;;;;;6311403;28;20271;-73
2022/03/06 16:09:58;;;;;;;1.23;1.23;;;4.30;90.10;;;;;;6310732;28;20615;-73
2022/03/06 16:13:04;;;;;;;3.40;1.30;;;4.20;91.40;;;;;;6310952;28;20290;-73
2022/03/06 16:16:12;;;;;;;3.80;1.00;;;4.20;91.10;;;;;;6311967;28;20295;-74
2022/03/06 16:19:19;;;;;;;2.27;0.90;;;4.20;90.80;;;;;;6290391;28;20574;-74
2022/03/06 16:22:25;;;;;;;2.40;0.80;;;4.10;91.50;;;;;;6285213;28;20299;-74
2022/03/06 16:25:37;;;;;;;1.57;0.90;;;4.10;92.00;;;;;;6268526;28;20270;-74
2022/03/06 16:28:45;;;;;;;1.03;0.97;;;4.10;91.70;;;;;;6286025;28;20295;-74